Главная страница
METAR-TAF:

METAR-TAF

Аэропорты :

Паланга, Литва

широта: 55-55-12N, долгота: 021-03E, высота над уровнем моря: 10 м

Текущие метеонаблюдения

Эта сводка был подготовлена 19 минут назад, в 02:20 UTC
Ветер 5 Узел от южный
Температура 10°C
Влажность 87%
Давление 1020 hPa
Видимость 10 км и более

METAR: EYPA 180220Z AUTO 17005KT 9999 NCD 10/08 Q1020

Время: 05:39 (02:39 UTC)

Прогноз

Эта сводка был подготовлена 3 часа и 38 минут назад, в 23:01 UTC
Прогноз действительный с 18-го 00 UTC до 18-го 24 UTC
Ветер 4 Узел переменных направлений
Видимость: 5000 м
Тонкий туман, дымка
временами
С 18-го 00 UTC до 18-го 07 UTC
Видимость: 0500 м
на высоте 200 фута
туман
изменения
С 18-го 07 UTC до 18-го 08 UTC
Ветер 8 Узел от южный
Видимость: 9000 м

TAF: EYPA 172301Z 1800/1824 VRB04KT 5000 MIFG BR TEMPO 1800/1807 0500 FG VV002 BECMG 1807/1808 19008KT 9000 NSC

Метеонаблюдения и прогнозы для более 4000 аэропортов (сводки METAR и TAF).

Имеющиеся станции представлены на карте желтыми и красными точками.

Чтобы увидеть название станции, наведите на нее мышь.

Затем щелкните, чтобы увидеть метеонаблюдения и метеопрогнозы.

Управление картой: чтобы увеличить масштаб, щелкните зеленые кнопки с черным крестиком; чтобы уменьшить масштаб, щелкните зеленую кнопку с тире; для просмотра соседних карт щелкайте зеленые стрелки.


METAR-TAF: